createdAt,value
2023-04-20T00:01:21.542Z,52.70
2023-04-20T00:03:48.484Z,52.80
2023-04-20T00:06:15.528Z,52.90
2023-04-20T00:08:42.238Z,53.00
2023-04-20T00:11:08.882Z,53.70
2023-04-20T00:13:35.505Z,53.20
2023-04-20T00:16:02.999Z,53.30
2023-04-20T00:18:29.642Z,53.40
2023-04-20T00:20:57.271Z,53.40
2023-04-20T00:23:23.894Z,53.50
2023-04-20T00:25:51.651Z,53.40
2023-04-20T00:28:18.330Z,53.40
2023-04-20T00:30:45.145Z,53.50
2023-04-20T00:33:11.813Z,53.50
2023-04-20T00:35:38.559Z,53.60
2023-04-20T00:38:05.760Z,53.70
2023-04-20T00:40:33.405Z,53.90
2023-04-20T00:43:12.854Z,54.00
2023-04-20T00:45:39.854Z,54.30
2023-04-20T00:48:07.071Z,54.20
2023-04-20T00:50:34.750Z,54.50
2023-04-20T00:53:02.580Z,54.70
2023-04-20T00:55:30.609Z,55.00
2023-04-20T00:57:58.144Z,55.20
2023-04-20T01:00:26.110Z,55.40
2023-04-20T01:02:52.946Z,55.70
2023-04-20T01:05:20.602Z,55.90
2023-04-20T01:07:47.366Z,56.20
2023-04-20T01:10:14.840Z,56.40
2023-04-20T01:12:42.113Z,56.60
2023-04-20T01:15:10.663Z,56.70
2023-04-20T01:17:40.695Z,57.10
2023-04-20T01:20:12.320Z,57.30
2023-04-20T01:22:46.330Z,57.40
2023-04-20T01:25:13.176Z,57.40
2023-04-20T01:27:40.016Z,57.40
2023-04-20T01:30:07.589Z,57.50
2023-04-20T01:32:37.663Z,57.60
2023-04-20T01:35:05.567Z,57.70
2023-04-20T01:37:32.232Z,57.80
2023-04-20T01:40:03.773Z,58.10
2023-04-20T01:42:30.620Z,58.10
2023-04-20T01:44:57.427Z,58.00
2023-04-20T01:47:24.159Z,58.20
2023-04-20T01:49:50.848Z,58.10
2023-04-20T01:52:18.048Z,58.10
2023-04-20T01:54:44.913Z,58.20
2023-04-20T01:57:11.802Z,58.20
2023-04-20T01:59:38.482Z,58.20
2023-04-20T02:02:05.182Z,58.20
2023-04-20T02:04:32.979Z,58.50
2023-04-20T02:07:00.498Z,58.50
2023-04-20T02:09:27.186Z,58.90
2023-04-20T02:11:54.088Z,59.30
2023-04-20T02:14:20.835Z,59.80
2023-04-20T02:16:47.671Z,60.80
2023-04-20T02:19:14.393Z,60.80
2023-04-20T02:21:41.196Z,61.10
2023-04-20T02:24:08.091Z,61.50
2023-04-20T02:26:34.761Z,61.60
2023-04-20T02:29:01.404Z,62.30
2023-04-20T02:31:28.121Z,61.80
2023-04-20T02:33:54.782Z,62.10
2023-04-20T02:36:21.427Z,62.20
2023-04-20T02:38:48.219Z,62.40
2023-04-20T02:41:14.838Z,63.10
2023-04-20T02:43:41.553Z,63.00
2023-04-20T02:46:09.940Z,63.40
2023-04-20T02:48:36.720Z,63.90
2023-04-20T02:51:03.734Z,63.80
2023-04-20T02:53:35.193Z,64.40
2023-04-20T02:56:22.458Z,64.40
2023-04-20T02:58:53.811Z,64.90
2023-04-20T03:01:23.894Z,64.50
2023-04-20T03:03:58.744Z,64.60
2023-04-20T03:06:26.527Z,65.90
2023-04-20T03:08:56.334Z,65.80
2023-04-20T03:11:45.703Z,65.90
2023-04-20T03:14:19.851Z,66.60
2023-04-20T03:16:47.279Z,66.90
2023-04-20T03:19:15.716Z,66.90
2023-04-20T03:21:43.019Z,66.90
2023-04-20T03:24:09.711Z,67.00
2023-04-20T03:26:37.161Z,66.80
2023-04-20T03:29:14.474Z,67.30
2023-04-20T03:31:41.209Z,67.20
2023-04-20T03:34:09.659Z,67.30
2023-04-20T03:36:37.864Z,67.10
2023-04-20T03:39:04.623Z,67.10
2023-04-20T03:41:31.891Z,67.40
2023-04-20T03:43:58.572Z,67.80
2023-04-20T03:46:25.438Z,68.10
2023-04-20T03:48:52.169Z,67.90
2023-04-20T03:51:18.861Z,67.80
2023-04-20T03:53:45.603Z,67.90
2023-04-20T03:56:13.607Z,68.00
2023-04-20T03:58:40.483Z,68.40
2023-04-20T04:01:17.126Z,68.50
2023-04-20T04:03:47.609Z,68.50
2023-04-20T04:06:14.475Z,68.60
2023-04-20T04:08:47.670Z,68.60
2023-04-20T04:11:14.402Z,68.90
2023-04-20T04:13:41.218Z,69.10
2023-04-20T04:16:31.632Z,69.20
2023-04-20T04:18:59.150Z,70.00
2023-04-20T04:21:27.561Z,69.20
2023-04-20T04:23:59.835Z,69.50
2023-04-20T04:26:46.452Z,69.60
2023-04-20T04:29:13.383Z,69.50
2023-04-20T04:35:11.825Z,69.80
2023-04-20T04:37:39.041Z,70.60
2023-04-20T04:40:09.294Z,70.00
2023-04-20T04:42:36.585Z,70.00
2023-04-20T04:45:05.942Z,70.20
2023-04-20T04:47:35.842Z,70.60
2023-04-20T04:50:04.551Z,70.50
2023-04-20T04:52:32.779Z,70.80
2023-04-20T04:54:59.562Z,70.50
2023-04-20T04:57:44.745Z,70.90
2023-04-20T05:00:24.425Z,72.00
2023-04-20T05:03:10.900Z,71.50
2023-04-20T05:05:38.042Z,71.30
2023-04-20T05:08:04.756Z,71.10
2023-04-20T05:10:50.366Z,71.20
2023-04-20T05:13:17.108Z,71.20
2023-04-20T05:15:44.028Z,71.60
2023-04-20T05:18:11.008Z,71.70
2023-04-20T05:20:37.898Z,71.60
2023-04-20T05:23:04.583Z,71.60
2023-04-20T05:25:32.585Z,71.70
2023-04-20T05:27:59.435Z,71.90
2023-04-20T05:30:26.219Z,72.00
2023-04-20T05:32:53.005Z,72.10
2023-04-20T05:35:20.380Z,72.00
2023-04-20T05:37:47.796Z,71.90
2023-04-20T05:40:15.653Z,72.20
2023-04-20T05:42:42.461Z,72.50
2023-04-20T05:45:09.873Z,72.60
2023-04-20T05:47:36.661Z,73.20
2023-04-20T05:50:03.807Z,73.10
2023-04-20T05:52:30.711Z,72.90
2023-04-20T05:54:57.325Z,73.20
2023-04-20T05:57:24.542Z,73.30
2023-04-20T05:59:51.485Z,73.70
2023-04-20T06:02:18.334Z,73.80
2023-04-20T06:04:45.523Z,73.90
2023-04-20T06:07:12.391Z,73.80
2023-04-20T06:09:39.057Z,74.20
2023-04-20T06:12:05.904Z,74.20
2023-04-20T06:14:32.553Z,74.50
2023-04-20T06:16:59.210Z,74.80
2023-04-20T06:19:26.267Z,75.00
2023-04-20T06:21:52.999Z,74.90
2023-04-20T06:24:19.653Z,75.30
2023-04-20T06:26:46.257Z,75.40
2023-04-20T06:29:12.947Z,75.50
2023-04-20T06:31:39.754Z,75.80
2023-04-20T06:34:06.494Z,76.40
2023-04-20T06:36:33.491Z,76.50
2023-04-20T06:39:00.370Z,76.50
2023-04-20T06:41:27.165Z,76.90
2023-04-20T06:43:53.833Z,77.00
2023-04-20T06:46:20.572Z,77.50
2023-04-20T06:48:47.339Z,77.80
2023-04-20T06:51:14.189Z,78.00
2023-04-20T06:53:40.969Z,78.30
2023-04-20T06:56:07.989Z,78.40
2023-04-20T06:58:34.688Z,78.70
2023-04-20T07:01:02.215Z,79.20
2023-04-20T07:03:29.081Z,80.50
2023-04-20T07:05:55.965Z,79.60
2023-04-20T07:08:23.033Z,79.90
2023-04-20T07:10:49.719Z,80.30
2023-04-20T07:13:16.623Z,80.50
2023-04-20T07:15:45.778Z,80.90
2023-04-20T07:18:12.714Z,81.40
2023-04-20T07:20:39.551Z,81.80
2023-04-20T07:23:06.631Z,81.50
2023-04-20T07:25:33.457Z,81.50
2023-04-20T07:28:00.237Z,81.80
2023-04-20T07:30:27.181Z,82.30
2023-04-20T07:32:53.941Z,82.80
2023-04-20T07:35:20.841Z,83.10
2023-04-20T07:37:47.620Z,84.00
2023-04-20T07:40:14.794Z,83.20
2023-04-20T07:42:41.529Z,83.40
2023-04-20T07:45:09.167Z,83.80
2023-04-20T07:47:36.346Z,84.00
2023-04-20T07:50:07.190Z,84.30
2023-04-20T07:52:34.097Z,85.00
2023-04-20T07:55:00.738Z,84.00
2023-04-20T07:57:28.140Z,84.00
2023-04-20T07:59:54.942Z,84.00
2023-04-20T08:02:21.623Z,84.00
2023-04-20T08:04:49.709Z,84.20
2023-04-20T08:07:16.764Z,84.80
2023-04-20T08:09:43.465Z,84.30
2023-04-20T08:12:10.103Z,84.70
2023-04-20T08:14:38.254Z,85.00
2023-04-20T08:17:05.098Z,85.30
2023-04-20T08:19:31.881Z,85.40
2023-04-20T08:21:59.713Z,85.70
2023-04-20T08:24:27.257Z,86.10
2023-04-20T08:26:54.018Z,86.00
2023-04-20T08:29:20.884Z,86.00
2023-04-20T08:31:49.311Z,86.10
2023-04-20T08:34:19.082Z,86.30
2023-04-20T08:36:46.360Z,86.00
2023-04-20T08:39:19.334Z,85.40
2023-04-20T08:41:46.746Z,86.00
2023-04-20T08:44:13.528Z,85.80
2023-04-20T08:46:46.323Z,85.60
2023-04-20T08:49:18.208Z,85.70
2023-04-20T08:51:46.021Z,85.60
2023-04-20T08:54:13.380Z,85.60
2023-04-20T08:56:46.384Z,85.50
2023-04-20T08:59:14.549Z,85.70
2023-04-20T09:01:44.999Z,85.20
2023-04-20T09:04:20.352Z,85.60
2023-04-20T09:06:52.135Z,85.40
2023-04-20T09:09:20.240Z,84.40
2023-04-20T09:11:47.541Z,84.20
2023-04-20T09:14:16.979Z,83.90
2023-04-20T09:16:53.874Z,84.00
2023-04-20T09:19:24.777Z,84.10
2023-04-20T09:21:54.671Z,83.60
2023-04-20T09:24:23.710Z,83.40
2023-04-20T09:26:50.551Z,83.00
2023-04-20T09:29:22.160Z,82.70
2023-04-20T09:31:49.484Z,82.40
2023-04-20T09:34:16.926Z,82.10
2023-04-20T09:36:46.257Z,81.90
2023-04-20T09:39:14.106Z,82.10
2023-04-20T09:41:42.003Z,81.90
2023-04-20T09:44:09.998Z,81.70
2023-04-20T09:46:40.521Z,81.40
2023-04-20T09:49:12.358Z,80.90
2023-04-20T09:51:46.881Z,80.00
2023-04-20T09:54:14.841Z,78.60
2023-04-20T09:56:42.017Z,77.80
2023-04-20T09:59:08.687Z,77.30
2023-04-20T10:01:37.886Z,76.30
2023-04-20T10:04:09.399Z,75.40
2023-04-20T10:06:37.271Z,75.00
2023-04-20T10:09:08.785Z,74.80
2023-04-20T10:11:45.133Z,74.90
2023-04-20T10:14:23.787Z,74.60
2023-04-20T10:17:08.644Z,74.20
2023-04-20T10:19:45.998Z,74.10
2023-04-20T10:22:24.986Z,74.10
2023-04-20T10:24:51.706Z,74.20
2023-04-20T10:27:19.603Z,74.10
2023-04-20T10:29:46.782Z,74.00
2023-04-20T10:32:28.227Z,74.30
2023-04-20T10:35:03.230Z,74.90
2023-04-20T10:37:30.489Z,75.30
2023-04-20T10:39:57.280Z,74.90
2023-04-20T10:42:24.191Z,74.40
2023-04-20T10:44:54.638Z,74.30
2023-04-20T10:47:32.353Z,73.80
2023-04-20T10:50:12.742Z,74.00
2023-04-20T10:52:42.008Z,73.90
2023-04-20T10:55:26.134Z,74.00
2023-04-20T10:57:53.375Z,73.70
2023-04-20T11:00:28.068Z,73.40
2023-04-20T11:02:57.132Z,73.30
2023-04-20T11:05:27.249Z,73.50
2023-04-20T11:07:53.890Z,72.70
2023-04-20T11:10:22.695Z,72.20
2023-04-20T11:12:49.655Z,71.50
2023-04-20T11:15:16.396Z,71.10
2023-04-20T11:17:43.133Z,70.60
2023-04-20T11:20:16.181Z,70.60
2023-04-20T11:22:43.735Z,70.30
2023-04-20T11:25:12.330Z,70.00
2023-04-20T11:27:39.680Z,70.00
2023-04-20T11:30:07.760Z,70.00
2023-04-20T11:32:36.050Z,70.00
2023-04-20T11:35:07.698Z,69.80
2023-04-20T11:37:48.097Z,70.50
2023-04-20T11:40:15.278Z,69.90
2023-04-20T11:42:42.221Z,70.00
2023-04-20T11:45:09.491Z,70.10
2023-04-20T11:47:36.280Z,70.10
2023-04-20T11:50:03.292Z,70.30
2023-04-20T11:52:30.174Z,70.60
2023-04-20T11:54:56.832Z,70.90
2023-04-20T11:57:25.510Z,71.00
2023-04-20T11:59:52.265Z,71.00
2023-04-20T12:02:19.027Z,71.20
2023-04-20T12:04:46.626Z,70.80
2023-04-20T12:07:13.580Z,70.20
2023-04-20T12:09:41.152Z,69.50
2023-04-20T12:12:10.814Z,69.80
2023-04-20T12:14:37.498Z,69.90
2023-04-20T12:17:05.052Z,70.20
2023-04-20T12:19:32.103Z,69.90
2023-04-20T12:21:58.858Z,70.10
2023-04-20T12:24:25.695Z,70.00
2023-04-20T12:26:52.362Z,69.20
2023-04-20T12:29:19.237Z,68.60
2023-04-20T12:31:46.319Z,68.50
2023-04-20T12:34:13.046Z,68.20
2023-04-20T12:36:39.786Z,67.70
2023-04-20T12:39:06.514Z,66.90
2023-04-20T12:41:34.308Z,66.40
2023-04-20T12:44:15.815Z,66.70
2023-04-20T12:46:42.696Z,66.70
2023-04-20T12:49:09.706Z,66.80
2023-04-20T12:51:36.332Z,66.90
2023-04-20T12:54:03.048Z,67.00
2023-04-20T12:56:29.695Z,66.80
2023-04-20T12:58:56.430Z,67.10
2023-04-20T13:01:23.346Z,67.30
2023-04-20T13:03:52.030Z,66.90
2023-04-20T13:06:18.839Z,66.90
2023-04-20T13:08:45.639Z,67.00
2023-04-20T13:11:15.225Z,66.70
2023-04-20T13:13:42.286Z,66.30
2023-04-20T13:16:09.200Z,66.10
2023-04-20T13:18:36.162Z,65.70
2023-04-20T13:21:02.896Z,65.30
2023-04-20T13:23:29.536Z,65.00
2023-04-20T13:25:59.023Z,64.70
2023-04-20T13:28:25.955Z,64.80
2023-04-20T13:30:55.356Z,64.50
2023-04-20T13:33:22.050Z,64.40
2023-04-20T13:35:48.821Z,63.50
2023-04-20T13:38:15.802Z,63.60
2023-04-20T13:40:44.084Z,63.90
2023-04-20T13:43:10.794Z,64.20
2023-04-20T13:45:37.530Z,64.20
2023-04-20T13:48:04.509Z,64.20
2023-04-20T13:50:31.285Z,64.20
2023-04-20T13:52:58.022Z,64.20
2023-04-20T13:55:26.381Z,63.80
2023-04-20T13:57:53.789Z,63.50
2023-04-20T14:00:21.675Z,63.50
2023-04-20T14:02:48.433Z,63.10
2023-04-20T14:05:15.345Z,63.00
2023-04-20T14:07:42.010Z,62.70
2023-04-20T14:10:09.277Z,62.40
2023-04-20T14:12:35.995Z,62.60
2023-04-20T14:15:02.947Z,61.80
2023-04-20T14:17:29.626Z,62.00
2023-04-20T14:19:56.759Z,61.60
2023-04-20T14:22:23.392Z,61.60
2023-04-20T14:24:50.098Z,61.50
2023-04-20T14:27:16.816Z,61.60
2023-04-20T14:29:43.489Z,61.70
2023-04-20T14:32:10.184Z,62.20
2023-04-20T14:34:36.928Z,62.50
2023-04-20T14:37:03.662Z,63.00
2023-04-20T14:39:30.411Z,62.50
2023-04-20T14:41:57.443Z,61.90
2023-04-20T14:44:24.125Z,61.50
2023-04-20T14:46:50.940Z,61.80
2023-04-20T14:49:17.662Z,62.10
2023-04-20T14:51:44.348Z,62.10
2023-04-20T14:54:11.011Z,62.40
2023-04-20T14:56:37.825Z,62.30
2023-04-20T14:59:04.598Z,62.00
2023-04-20T15:01:31.347Z,61.80
2023-04-20T15:03:58.256Z,61.80
2023-04-20T15:06:25.443Z,61.50
2023-04-20T15:08:56.275Z,61.40
2023-04-20T15:11:23.065Z,61.40
2023-04-20T15:13:51.078Z,61.80
2023-04-20T15:16:17.973Z,61.80
2023-04-20T15:18:44.713Z,62.20
2023-04-20T15:21:11.558Z,61.40
2023-04-20T15:23:38.381Z,61.00
2023-04-20T15:26:06.419Z,60.60
2023-04-20T15:28:33.014Z,60.20
2023-04-20T15:30:59.675Z,60.40
2023-04-20T15:33:26.684Z,60.20
2023-04-20T15:35:53.367Z,60.30
2023-04-20T15:38:20.162Z,60.20
2023-04-20T15:40:46.916Z,59.50
2023-04-20T15:43:13.569Z,59.50
2023-04-20T15:45:41.223Z,59.40
2023-04-20T15:48:09.114Z,59.50
2023-04-20T15:50:36.156Z,59.80
2023-04-20T15:53:02.957Z,59.70
2023-04-20T15:55:34.246Z,60.00
2023-04-20T15:58:01.128Z,59.90
2023-04-20T16:00:27.833Z,59.90
2023-04-20T16:02:54.837Z,60.00
2023-04-20T16:05:21.860Z,59.80
2023-04-20T16:07:48.550Z,59.60
2023-04-20T16:10:15.388Z,59.70
2023-04-20T16:12:42.034Z,59.70
2023-04-20T16:15:09.383Z,60.40
2023-04-20T16:17:36.046Z,59.70
2023-04-20T16:20:02.768Z,59.70
2023-04-20T16:22:29.577Z,59.60
2023-04-20T16:24:56.570Z,59.70
2023-04-20T16:27:23.260Z,59.70
2023-04-20T16:29:49.936Z,59.80
2023-04-20T16:32:16.636Z,60.00
2023-04-20T16:34:43.421Z,60.20
2023-04-20T16:37:10.090Z,60.40
2023-04-20T16:39:37.227Z,60.40
2023-04-20T16:42:04.045Z,60.60
2023-04-20T16:44:30.742Z,60.70
2023-04-20T16:46:57.392Z,60.90
2023-04-20T16:49:24.089Z,61.00
2023-04-20T16:51:50.849Z,61.20
2023-04-20T16:54:17.851Z,61.30
2023-04-20T16:56:44.740Z,61.50
2023-04-20T16:59:11.455Z,61.70
2023-04-20T17:01:38.239Z,61.90
2023-04-20T17:04:05.079Z,62.00
2023-04-20T17:06:31.973Z,62.10
2023-04-20T17:09:05.338Z,62.30
2023-04-20T17:11:35.774Z,62.50
2023-04-20T17:14:03.488Z,62.80
2023-04-20T17:16:30.339Z,63.40
2023-04-20T17:18:57.287Z,63.70
2023-04-20T17:21:23.964Z,64.20
2023-04-20T17:23:50.676Z,64.30
2023-04-20T17:26:17.364Z,64.70
2023-04-20T17:28:44.034Z,65.00
2023-04-20T17:31:10.875Z,65.30
2023-04-20T17:33:37.638Z,65.90
2023-04-20T17:36:04.587Z,66.10
2023-04-20T17:38:36.322Z,66.40
2023-04-20T17:41:03.522Z,66.60
2023-04-20T17:43:30.785Z,66.90
2023-04-20T17:46:00.556Z,66.90
2023-04-20T17:48:27.303Z,67.10
2023-04-20T17:50:54.097Z,67.40
2023-04-20T17:53:20.878Z,67.60
2023-04-20T17:55:47.532Z,67.90
2023-04-20T17:58:14.338Z,68.20
2023-04-20T18:00:41.024Z,68.70
2023-04-20T18:03:07.851Z,69.00
2023-04-20T18:05:34.744Z,69.30
2023-04-20T18:08:01.895Z,69.60
2023-04-20T18:10:28.652Z,70.10
2023-04-20T18:12:55.421Z,70.60
2023-04-20T18:15:22.175Z,71.30
2023-04-20T18:17:49.382Z,71.90
2023-04-20T18:20:16.224Z,72.60
2023-04-20T18:22:42.899Z,72.90
2023-04-20T18:25:09.834Z,73.30
2023-04-20T18:27:36.995Z,74.10
2023-04-20T18:30:04.041Z,74.50
2023-04-20T18:32:31.300Z,75.10
2023-04-20T18:34:59.140Z,76.20
2023-04-20T18:37:25.999Z,76.30
2023-04-20T18:39:52.665Z,77.70
2023-04-20T18:42:19.428Z,77.90
2023-04-20T18:44:46.343Z,78.00
2023-04-20T18:47:13.189Z,78.60
2023-04-20T18:49:39.876Z,78.80
2023-04-20T18:52:06.656Z,79.40
2023-04-20T18:54:33.402Z,80.00
2023-04-20T18:57:00.011Z,80.20
2023-04-20T18:59:26.694Z,80.90
2023-04-20T19:01:53.665Z,81.10
2023-04-20T19:04:21.013Z,81.30
2023-04-20T19:06:48.188Z,81.60
2023-04-20T19:09:15.053Z,82.10
2023-04-20T19:11:42.158Z,83.00
2023-04-20T19:14:08.847Z,83.00
2023-04-20T19:16:35.540Z,82.90
2023-04-20T19:19:03.835Z,83.10
2023-04-20T19:21:32.147Z,83.80
2023-04-20T19:23:58.851Z,83.70
2023-04-20T19:26:25.513Z,83.80
2023-04-20T19:28:52.271Z,84.10
2023-04-20T19:31:19.413Z,84.30
2023-04-20T19:33:46.129Z,85.10
2023-04-20T19:36:12.804Z,84.80
2023-04-20T19:38:39.476Z,84.60
2023-04-20T19:41:06.418Z,84.90
2023-04-20T19:43:33.122Z,84.70
2023-04-20T19:46:00.068Z,84.50
2023-04-20T19:48:26.828Z,84.60
2023-04-20T19:50:56.472Z,84.40
2023-04-20T19:53:24.992Z,85.20
2023-04-20T19:55:51.704Z,84.70
2023-04-20T19:58:19.459Z,84.80
2023-04-20T20:00:46.345Z,84.80
2023-04-20T20:03:15.547Z,84.60
2023-04-20T20:05:43.285Z,84.90
2023-04-20T20:08:10.129Z,85.00
2023-04-20T20:10:36.857Z,84.90
2023-04-20T20:13:03.707Z,85.00
2023-04-20T20:15:30.616Z,85.00
2023-04-20T20:17:59.342Z,85.10
2023-04-20T20:20:32.344Z,85.10
2023-04-20T20:22:59.802Z,85.40
2023-04-20T20:25:26.899Z,85.70
2023-04-20T20:27:53.743Z,85.80
2023-04-20T20:30:20.621Z,86.10
2023-04-20T20:32:47.294Z,85.90
2023-04-20T20:35:14.008Z,86.10
2023-04-20T20:37:41.606Z,86.30
2023-04-20T20:40:14.878Z,86.40
2023-04-20T20:42:42.494Z,87.60
2023-04-20T20:45:12.340Z,86.70
2023-04-20T20:47:40.817Z,87.00
2023-04-20T20:50:08.509Z,86.90
2023-04-20T20:52:35.248Z,86.60
2023-04-20T20:55:02.216Z,87.70
2023-04-20T20:57:28.878Z,88.10
2023-04-20T20:59:55.592Z,88.20
2023-04-20T21:02:22.800Z,88.10
2023-04-20T21:04:49.684Z,88.40
2023-04-20T21:07:16.656Z,88.30
2023-04-20T21:09:43.409Z,88.60
2023-04-20T21:12:10.158Z,88.80
2023-04-20T21:14:39.739Z,89.10
2023-04-20T21:17:06.482Z,89.20
2023-04-20T21:19:33.198Z,89.40
2023-04-20T21:21:59.841Z,89.70
2023-04-20T21:24:26.643Z,89.90
2023-04-20T21:26:53.466Z,89.90
2023-04-20T21:29:20.466Z,90.00
2023-04-20T21:31:47.420Z,90.10
2023-04-20T21:34:14.236Z,90.20
2023-04-20T21:36:41.068Z,90.30
2023-04-20T21:39:07.831Z,90.40
2023-04-20T21:41:34.589Z,90.40
2023-04-20T21:44:02.470Z,90.50
2023-04-20T21:46:29.547Z,90.70
2023-04-20T21:48:56.393Z,90.90
2023-04-20T21:51:23.066Z,91.00
2023-04-20T21:53:49.698Z,91.10
2023-04-20T21:56:16.362Z,91.20
2023-04-20T21:58:43.081Z,91.30
2023-04-20T22:01:09.827Z,91.50
2023-04-20T22:03:37.665Z,91.60
2023-04-20T22:06:05.023Z,91.70
2023-04-20T22:08:31.915Z,91.80
2023-04-20T22:10:58.558Z,91.80
2023-04-20T22:13:25.351Z,91.80
2023-04-20T22:15:52.502Z,92.10
2023-04-20T22:18:19.480Z,92.10
2023-04-20T22:20:46.184Z,92.10
2023-04-20T22:23:12.887Z,92.10
2023-04-20T22:25:40.518Z,92.20
2023-04-20T22:28:07.251Z,92.20
2023-04-20T22:30:34.234Z,92.30
2023-04-20T22:33:01.341Z,92.40
2023-04-20T22:35:28.187Z,92.50
2023-04-20T22:37:55.101Z,92.50
2023-04-20T22:40:22.103Z,92.60
2023-04-20T22:42:48.844Z,92.70
2023-04-20T22:45:19.387Z,92.60
2023-04-20T22:47:46.979Z,92.70
2023-04-20T22:50:15.002Z,92.80
2023-04-20T22:52:42.138Z,92.90
2023-04-20T22:55:10.175Z,92.90
2023-04-20T22:57:37.301Z,93.10
2023-04-20T23:00:10.605Z,93.00
2023-04-20T23:02:37.818Z,93.20
2023-04-20T23:05:05.558Z,93.20
2023-04-20T23:07:33.118Z,93.40
2023-04-20T23:10:00.110Z,93.40
2023-04-20T23:12:29.269Z,93.40
2023-04-20T23:14:56.560Z,93.40
2023-04-20T23:17:23.374Z,93.50
2023-04-20T23:19:50.764Z,93.90
2023-04-20T23:22:17.555Z,93.50
2023-04-20T23:24:44.377Z,93.70
2023-04-20T23:27:11.036Z,93.70
2023-04-20T23:29:37.710Z,93.80
2023-04-20T23:32:04.739Z,93.90
2023-04-20T23:34:31.463Z,94.10
2023-04-20T23:36:58.304Z,94.10
2023-04-20T23:39:25.171Z,94.20
2023-04-20T23:41:51.822Z,94.20
2023-04-20T23:44:18.497Z,94.30
2023-04-20T23:46:45.307Z,94.40
2023-04-20T23:49:11.947Z,94.40
2023-04-20T23:51:38.654Z,94.40
2023-04-20T23:54:05.582Z,94.40
2023-04-20T23:56:32.284Z,94.60
2023-04-20T23:58:59.407Z,94.50
